Kirchberg-Wetter.de


Hier erfahren Sie, wie das Wetter wird...


WebCam am Fuchsberg more information WebCam am Fuchsberg


Thunder radar more information blitzortung!


Rain radar more information rain snow radar


Besuchen Sie unsere anderen Wetter Stationen:

Template documentation
and downloads



METAR-Meldungen aus der Umgebung

   
EHVK - Volkel Rnlafb, Netherlands
Entfernung von der Station bis: SW 18 km
Aktualisierung: 12-04-2024 22:25
Bewölkt  
Bewölkt  
   Wind: SW 11.1 km/h
Wind: SW 11.1 km/h
Temperatur: 14°C
Taupunkt: 12°C
Luftfeuchte: 88%
Luftdruck: 1027 hPa
Bewölkt: Bewölkt
Sichtbarkeit: More than 10 km
Bewölkung: Bewölkt 23000 ft
EHVK 122025Z AUTO 23006KT 9999 OVC230 14/12 Q1027 BLU
EDLV - Niederrhein, Germany
Entfernung von der Station bis: SO 25 km
Aktualisierung: 12-04-2024 22:50
Klar  
Klar  
   Wind: SSW 7.4 km/h
Wind: SSW 7.4 km/h
Temperatur: 16°C
Taupunkt: 12°C
Luftfeuchte: 77%
Luftdruck: 1028 hPa
Sichtbarkeit: More than 10 km
Bewölkung: Klar
EDLV 122050Z 20004KT CAVOK 16/12 Q1028
EHDL - Deelen Rnlafb, Netherlands
Entfernung von der Station bis: N 35 km
Aktualisierung: 12-04-2024 22:25
Bewölkt  
Bewölkt  
   Wind: SSW 7.4 km/h
Wind: SSW 7.4 km/h
Temperatur: 14°C
Taupunkt: 11°C
Luftfeuchte: 82%
Luftdruck: 1027 hPa
Bewölkt: Bewölkt
Sichtbarkeit: More than 10 km
Bewölkung: Bewölkt 22000 ft
EHDL 122025Z AUTO 21004KT 150V210 9999 OVC220 14/11 Q1027 BLU
EHEH - Eindhoven Rnlafb, Netherlands
Entfernung von der Station bis: SW 48 km
Aktualisierung: 12-04-2024 22:42
Bewölkt  
Bewölkt  
   Wind: SSW 11.1 km/h
Wind: SSW 11.1 km/h
Temperatur: 15°C
Taupunkt: 12°C
Luftfeuchte: 82%
Luftdruck: 1028 hPa
Bewölkt: Bewölkt
Sichtbarkeit: More than 10 km
Bewölkung: Bewölkt 23000 ft
EHEH 122042Z AUTO 20006KT 9999 OVC230 15/12 Q1028 BLU
EHGR - Gilze-Rijen Rnla, Netherlands
Entfernung von der Station bis: WSW 70 km
Aktualisierung: 12-04-2024 22:25
Bewölkt  
Bewölkt  
   Wind: SSW 7.4 km/h
Wind: SSW 7.4 km/h
Temperatur: 16°C
Taupunkt: 11°C
Luftfeuchte: 72%
Luftdruck: 1027 hPa
Bewölkt: Bewölkt
Sichtbarkeit: More than 10 km
Bewölkung: Bewölkt 25000 ft
EHGR 122025Z AUTO 21004KT 9999 OVC250 16/11 Q1027 BLU
EBBL - Kleine-Brogel(Ba, Belgium
Entfernung von der Station bis: SSW 71 km
Aktualisierung: 12-04-2024 17:25
Nicht aktuell
leicht bewölkt  
leicht bewölkt  
   Wind: WSW 22.2 km/h
Wind: WSW 22.2 km/h
Temperatur: 21°C
Taupunkt: 11°C
Luftfeuchte: 53%
Luftdruck: 1029 hPa
Bewölkt: leicht bewölkt
Sichtbarkeit: More than 10 km
Bewölkung: leicht bewölkt 4400 ft
EBBL 121525Z AUTO 24012KT 9999 FEW044/// 21/11 Q1029 BLU

Script entwickelt von  Saratoga-weather.org Angepasst für das Template von  Weerstation Leuven

Sie finden unser Wetter-Infos auch auf:

Weather Underground

WeatherlinkIP

Wetternetz-Sachsen

Von uns verwendete Ausrüstung:

Wetterstation
Davis Vantage Pro2 Plus

Wetterprogramm
Meteobridge

WetterComputer
TP-Link TL-MR3020

Davis Vantage Pro2 Plus

Meteobridge

TP-Link TL-MR3020